createdAt,value
2022-11-04T00:02:50.579Z,82.44
2022-11-04T00:08:22.263Z,81.96
2022-11-04T00:13:53.820Z,81.90
2022-11-04T00:19:25.934Z,81.22
2022-11-04T00:24:57.384Z,80.90
2022-11-04T00:30:28.887Z,79.65
2022-11-04T00:36:00.643Z,80.08
2022-11-04T00:41:32.333Z,79.74
2022-11-04T00:47:04.135Z,79.96
2022-11-04T00:52:35.960Z,79.93
2022-11-04T00:58:07.737Z,80.14
2022-11-04T01:03:39.724Z,82.17
2022-11-04T01:09:11.249Z,83.07
2022-11-04T01:14:42.893Z,84.08
2022-11-04T01:20:14.506Z,84.22
2022-11-04T01:25:46.202Z,85.12
2022-11-04T01:31:17.965Z,86.15
2022-11-04T01:36:49.651Z,86.72
2022-11-04T01:42:21.041Z,86.92
2022-11-04T01:47:52.592Z,87.15
2022-11-04T01:53:24.178Z,86.72
2022-11-04T01:58:55.766Z,86.67
2022-11-04T02:04:27.418Z,86.68
2022-11-04T02:09:59.155Z,86.47
2022-11-04T02:15:31.075Z,86.00
2022-11-04T02:21:02.727Z,85.73
2022-11-04T02:26:34.356Z,85.10
2022-11-04T02:32:05.835Z,84.63
2022-11-04T02:37:37.524Z,84.56
2022-11-04T02:43:09.351Z,84.20
2022-11-04T02:48:40.673Z,84.15
2022-11-04T02:54:12.394Z,83.95
2022-11-04T02:59:44.006Z,84.00
2022-11-04T03:05:15.503Z,84.02
2022-11-04T03:10:46.947Z,83.88
2022-11-04T03:16:18.176Z,83.87
2022-11-04T03:21:49.633Z,83.64
2022-11-04T03:27:20.806Z,83.11
2022-11-04T03:32:58.291Z,82.84
2022-11-04T03:38:29.789Z,82.86
2022-11-04T03:44:01.440Z,81.82
2022-11-04T03:49:32.947Z,81.58
2022-11-04T03:55:04.511Z,81.03
2022-11-04T04:00:36.291Z,80.38
2022-11-04T04:06:07.858Z,80.31
2022-11-04T04:11:39.116Z,79.95
2022-11-04T04:22:42.045Z,79.91
2022-11-04T04:28:19.328Z,79.95
2022-11-04T04:33:50.616Z,79.74
2022-11-04T04:39:22.150Z,79.78
2022-11-04T04:44:53.935Z,79.89
2022-11-04T04:50:25.563Z,79.56
2022-11-04T04:55:56.807Z,79.52
2022-11-04T05:01:28.373Z,79.80
2022-11-04T05:06:59.442Z,79.03
2022-11-04T05:12:30.971Z,78.93
2022-11-04T05:18:02.580Z,79.00
2022-11-04T05:23:34.082Z,79.10
2022-11-04T05:29:05.625Z,78.90
2022-11-04T05:34:36.908Z,79.45
2022-11-04T05:40:08.582Z,80.70
2022-11-04T05:45:39.856Z,81.54
2022-11-04T05:51:11.152Z,82.07
2022-11-04T05:56:42.511Z,83.52
2022-11-04T06:02:14.263Z,84.87
2022-11-04T06:07:45.569Z,85.54
2022-11-04T06:13:16.829Z,86.60
2022-11-04T06:18:48.118Z,87.15
2022-11-04T06:24:21.223Z,86.37
2022-11-04T06:29:52.657Z,84.46
2022-11-04T06:35:30.055Z,85.52
2022-11-04T06:41:01.735Z,86.67
2022-11-04T06:46:33.165Z,87.10
2022-11-04T06:52:04.424Z,88.10
2022-11-04T06:57:37.284Z,88.76
2022-11-04T07:03:09.215Z,89.09
2022-11-04T07:14:09.796Z,88.85
2022-11-04T07:19:41.454Z,89.11
2022-11-04T07:25:13.236Z,89.64
2022-11-04T07:30:44.923Z,90.32
2022-11-04T07:36:16.261Z,90.68
2022-11-04T07:41:48.192Z,90.94
2022-11-04T07:52:48.780Z,90.87
2022-11-04T08:03:49.913Z,88.29
2022-11-04T08:14:50.390Z,90.76
2022-11-04T08:20:21.995Z,90.94
2022-11-04T08:25:53.601Z,91.07
2022-11-04T08:36:54.420Z,90.74
2022-11-04T08:42:26.235Z,90.65
2022-11-04T08:48:01.388Z,90.50
2022-11-04T09:09:57.966Z,89.75
2022-11-04T09:15:29.631Z,89.93
2022-11-04T09:21:00.915Z,89.22
2022-11-04T09:26:32.852Z,89.25
2022-11-04T09:32:04.693Z,89.24
2022-11-04T09:43:05.332Z,89.20
2022-11-04T09:48:37.251Z,89.03
2022-11-04T09:54:08.920Z,89.02
2022-11-04T09:59:40.840Z,88.87
2022-11-04T10:10:42.219Z,88.74
2022-11-04T10:16:13.784Z,89.24
2022-11-04T10:21:45.785Z,89.29
2022-11-04T10:27:17.203Z,89.52
2022-11-04T10:32:48.539Z,88.96
2022-11-04T10:43:49.471Z,88.61
2022-11-04T10:54:50.820Z,88.17
2022-11-04T11:00:22.576Z,87.82
2022-11-04T11:05:54.177Z,87.85
2022-11-04T11:11:26.128Z,87.61
2022-11-04T11:22:27.556Z,86.65
2022-11-04T11:33:28.780Z,86.30
2022-11-04T11:39:00.644Z,86.08
2022-11-04T11:44:32.422Z,85.43
2022-11-04T11:50:04.282Z,84.60
2022-11-04T11:52:16.613Z,84.47
2022-11-04T12:03:20.810Z,84.89
2022-11-04T12:14:23.214Z,84.75
2022-11-04T12:19:54.539Z,84.89
2022-11-04T12:25:25.926Z,84.99
2022-11-04T12:30:57.953Z,84.75
2022-11-04T12:36:29.614Z,84.36
2022-11-04T12:47:33.267Z,85.09
2022-11-04T12:53:05.190Z,85.35
2022-11-04T12:58:37.051Z,86.07
2022-11-04T13:04:09.239Z,86.13
2022-11-04T13:09:41.026Z,85.06
2022-11-04T13:15:12.697Z,85.76
2022-11-04T13:20:44.590Z,84.75
2022-11-04T13:26:16.390Z,85.20
2022-11-04T13:31:48.044Z,85.68
2022-11-04T13:37:19.847Z,83.64
2022-11-04T13:42:51.792Z,86.17
2022-11-04T13:48:23.238Z,87.19
2022-11-04T13:53:54.914Z,87.82
2022-11-04T13:59:26.837Z,87.89
2022-11-04T14:04:58.301Z,88.38
2022-11-04T14:10:29.842Z,88.27
2022-11-04T14:16:01.585Z,88.13
2022-11-04T14:21:33.364Z,87.82
2022-11-04T14:27:05.041Z,87.49
2022-11-04T14:32:36.825Z,86.96
2022-11-04T14:38:08.535Z,86.86
2022-11-04T14:43:40.280Z,86.75
2022-11-04T14:49:12.138Z,85.92
2022-11-04T14:54:43.741Z,85.96
2022-11-04T15:00:15.513Z,85.82
2022-11-04T15:11:18.561Z,85.85
2022-11-04T15:16:49.860Z,84.94
2022-11-04T15:27:50.792Z,86.26
2022-11-04T15:33:22.577Z,86.73
2022-11-04T15:39:00.284Z,85.18
2022-11-04T15:44:31.975Z,85.59
2022-11-04T15:50:03.836Z,85.23
2022-11-04T15:55:41.448Z,84.81
2022-11-04T16:03:25.790Z,84.71
2022-11-04T16:08:57.512Z,84.77
2022-11-04T16:14:28.908Z,84.39
2022-11-04T16:20:00.819Z,84.42
2022-11-04T16:25:32.713Z,84.55
2022-11-04T16:31:04.560Z,84.67
2022-11-04T16:36:36.329Z,84.62
2022-11-04T16:42:07.956Z,84.91
2022-11-04T16:47:40.023Z,85.05
2022-11-04T16:53:17.283Z,84.10
2022-11-04T16:58:49.080Z,84.98
2022-11-04T17:04:20.942Z,85.65
2022-11-04T17:09:53.591Z,86.15
2022-11-04T17:15:25.447Z,85.44
2022-11-04T17:20:57.223Z,86.34
2022-11-04T17:26:29.159Z,86.86
2022-11-04T17:32:00.864Z,85.46
2022-11-04T17:37:32.744Z,85.88
2022-11-04T17:43:10.310Z,86.11
2022-11-04T17:54:05.620Z,85.60
2022-11-04T18:07:27.559Z,86.79
2022-11-04T18:12:59.350Z,87.02
2022-11-04T18:18:31.162Z,86.72
2022-11-04T18:24:02.833Z,86.82
2022-11-04T18:29:34.216Z,87.05
2022-11-04T18:35:06.196Z,87.30
2022-11-04T18:40:37.928Z,87.49
2022-11-04T18:46:09.727Z,87.54
2022-11-04T18:51:41.614Z,87.72
2022-11-04T18:57:13.273Z,87.73
2022-11-04T19:02:46.211Z,87.61
2022-11-04T19:08:18.015Z,87.58
2022-11-04T19:13:55.108Z,87.64
2022-11-04T19:19:26.675Z,87.76
2022-11-04T19:24:58.372Z,87.94
2022-11-04T19:30:31.318Z,88.05
2022-11-04T19:36:02.975Z,87.97
2022-11-04T19:41:34.510Z,86.95
2022-11-04T19:47:06.372Z,86.66
2022-11-04T19:52:38.354Z,86.69
2022-11-04T19:58:10.480Z,85.71
2022-11-04T20:03:41.883Z,85.80
2022-11-04T20:14:45.654Z,87.17
2022-11-04T20:20:17.270Z,87.66
2022-11-04T20:25:49.364Z,88.04
2022-11-04T20:31:21.148Z,88.28
2022-11-04T20:36:52.817Z,88.59
2022-11-04T20:42:24.746Z,88.97
2022-11-04T20:47:56.175Z,88.92
2022-11-04T20:53:28.250Z,89.06
2022-11-04T20:59:00.213Z,89.21
2022-11-04T21:10:01.371Z,89.27
2022-11-04T21:15:32.810Z,89.87
2022-11-04T21:21:04.924Z,89.91
2022-11-04T21:26:37.154Z,90.19
2022-11-04T21:32:08.743Z,90.58
2022-11-04T21:48:44.235Z,90.62
2022-11-04T21:54:17.802Z,90.77
2022-11-04T22:05:19.093Z,90.44
2022-11-04T22:10:51.308Z,89.98
2022-11-04T22:16:23.251Z,90.23
2022-11-04T22:21:54.876Z,90.02
2022-11-04T22:32:58.389Z,89.56
2022-11-04T22:38:29.911Z,89.44
2022-11-04T22:44:01.807Z,89.16
2022-11-04T22:49:33.349Z,89.14
2022-11-04T22:55:05.413Z,89.03
2022-11-04T23:00:36.979Z,88.95
2022-11-04T23:06:08.911Z,88.83
2022-11-04T23:11:41.150Z,88.58
2022-11-04T23:17:12.896Z,88.38
2022-11-04T23:22:44.853Z,88.30
2022-11-04T23:28:16.548Z,88.28
2022-11-04T23:33:48.290Z,88.34
2022-11-04T23:39:20.217Z,88.38
2022-11-04T23:44:51.948Z,88.34
2022-11-04T23:55:58.020Z,88.38
